sensor_id;sensor_type;location;lat;lon;timestamp;pressure;altitude;pressure_sealevel;temperature;humidity
36600;BME280;35385;55.668;37.508;2023-06-10T00:00:28;99641.13;;;13.42;100.00
36600;BME280;35385;55.668;37.508;2023-06-10T00:01:30;99649.03;;;13.44;100.00
36600;BME280;35385;55.668;37.508;2023-06-10T00:02:31;99638.88;;;13.48;100.00
36600;BME280;35385;55.668;37.508;2023-06-10T00:03:31;99637.16;;;13.47;100.00
36600;BME280;35385;55.668;37.508;2023-06-10T00:04:32;99634.91;;;13.42;100.00
36600;BME280;35385;55.668;37.508;2023-06-10T00:05:32;99641.13;;;13.42;100.00
36600;BME280;35385;55.668;37.508;2023-06-10T00:06:34;99643.41;;;13.37;100.00
36600;BME280;35385;55.668;37.508;2023-06-10T00:07:39;99647.66;;;13.30;100.00
36600;BME280;35385;55.668;37.508;2023-06-10T00:08:41;99645.56;;;13.24;100.00
36600;BME280;35385;55.668;37.508;2023-06-10T00:09:42;99634.69;;;13.26;100.00
36600;BME280;35385;55.668;37.508;2023-06-10T00:10:42;99640.34;;;13.23;100.00
36600;BME280;35385;55.668;37.508;2023-06-10T00:11:43;99639.63;;;13.21;100.00
36600;BME280;35385;55.668;37.508;2023-06-10T00:12:43;99637.94;;;13.20;100.00
36600;BME280;35385;55.668;37.508;2023-06-10T00:13:43;99643.72;;;13.25;100.00
36600;BME280;35385;55.668;37.508;2023-06-10T00:14:44;99639.22;;;13.25;100.00
36600;BME280;35385;55.668;37.508;2023-06-10T00:15:44;99641.88;;;13.16;100.00
36600;BME280;35385;55.668;37.508;2023-06-10T00:16:45;99644.00;;;13.12;100.00
36600;BME280;35385;55.668;37.508;2023-06-10T00:17:45;99642.88;;;13.15;100.00
36600;BME280;35385;55.668;37.508;2023-06-10T00:18:46;99641.59;;;13.19;100.00
36600;BME280;35385;55.668;37.508;2023-06-10T00:19:47;99638.47;;;13.14;100.00
36600;BME280;35385;55.668;37.508;2023-06-10T00:20:47;99649.66;;;13.19;100.00
36600;BME280;35385;55.668;37.508;2023-06-10T00:21:48;99645.13;;;13.19;100.00
36600;BME280;35385;55.668;37.508;2023-06-10T00:22:51;99651.78;;;13.15;100.00
36600;BME280;35385;55.668;37.508;2023-06-10T00:23:52;99655.84;;;13.09;100.00
36600;BME280;35385;55.668;37.508;2023-06-10T00:24:52;99653.31;;;13.08;100.00
36600;BME280;35385;55.668;37.508;2023-06-10T00:25:52;99663.59;;;13.03;100.00
36600;BME280;35385;55.668;37.508;2023-06-10T00:26:53;99672.25;;;12.97;100.00
36600;BME280;35385;55.668;37.508;2023-06-10T00:27:53;99667.41;;;13.00;100.00
36600;BME280;35385;55.668;37.508;2023-06-10T00:28:54;99670.81;;;13.02;100.00
36600;BME280;35385;55.668;37.508;2023-06-10T00:29:54;99673.09;;;12.97;100.00
36600;BME280;35385;55.668;37.508;2023-06-10T00:30:55;99667.72;;;12.97;100.00
36600;BME280;35385;55.668;37.508;2023-06-10T00:31:56;99671.78;;;13.01;100.00
36600;BME280;35385;55.668;37.508;2023-06-10T00:32:57;99671.38;;;12.96;100.00
36600;BME280;35385;55.668;37.508;2023-06-10T00:33:58;99673.09;;;12.97;100.00
36600;BME280;35385;55.668;37.508;2023-06-10T00:34:59;99678.72;;;13.04;100.00
36600;BME280;35385;55.668;37.508;2023-06-10T00:35:59;99681.53;;;13.02;100.00
36600;BME280;35385;55.668;37.508;2023-06-10T00:36:59;99677.59;;;13.06;100.00
36600;BME280;35385;55.668;37.508;2023-06-10T00:38:00;99680.97;;;13.08;100.00
36600;BME280;35385;55.668;37.508;2023-06-10T00:39:00;99684.38;;;13.10;100.00
36600;BME280;35385;55.668;37.508;2023-06-10T00:40:01;99684.22;;;13.12;100.00
36600;BME280;35385;55.668;37.508;2023-06-10T00:41:03;99681.53;;;13.02;100.00
36600;BME280;35385;55.668;37.508;2023-06-10T00:42:03;99683.81;;;12.97;100.00
36600;BME280;35385;55.668;37.508;2023-06-10T00:43:07;99689.31;;;12.96;100.00
36600;BME280;35385;55.668;37.508;2023-06-10T00:44:07;99679.97;;;13.00;100.00
36600;BME280;35385;55.668;37.508;2023-06-10T00:45:08;99686.75;;;13.04;100.00
36600;BME280;35385;55.668;37.508;2023-06-10T00:46:08;99683.50;;;13.00;100.00
36600;BME280;35385;55.668;37.508;2023-06-10T00:47:09;99690.28;;;12.95;100.00
36600;BME280;35385;55.668;37.508;2023-06-10T00:48:10;99683.25;;;12.94;100.00
36600;BME280;35385;55.668;37.508;2023-06-10T00:49:10;99682.66;;;13.00;100.00
36600;BME280;35385;55.668;37.508;2023-06-10T00:50:11;99688.88;;;13.00;100.00
36600;BME280;35385;55.668;37.508;2023-06-10T00:51:12;99690.00;;;13.07;100.00
36600;BME280;35385;55.668;37.508;2023-06-10T00:52:13;99690.00;;;13.07;100.00
36600;BME280;35385;55.668;37.508;2023-06-10T00:53:14;99692.53;;;12.99;100.00
36600;BME280;35385;55.668;37.508;2023-06-10T00:54:15;99696.91;;;13.00;100.00
36600;BME280;35385;55.668;37.508;2023-06-10T00:55:16;99696.22;;;13.08;100.00
36600;BME280;35385;55.668;37.508;2023-06-10T00:56:17;99698.22;;;13.16;100.00
36600;BME280;35385;55.668;37.508;2023-06-10T00:57:18;99704.66;;;13.13;100.00
36600;BME280;35385;55.668;37.508;2023-06-10T00:58:18;99702.59;;;13.17;100.00
36600;BME280;35385;55.668;37.508;2023-06-10T00:59:19;99706.69;;;13.21;100.00
36600;BME280;35385;55.668;37.508;2023-06-10T01:00:20;99702.44;;;13.08;100.00
36600;BME280;35385;55.668;37.508;2023-06-10T01:01:20;99701.84;;;13.05;100.00
36600;BME280;35385;55.668;37.508;2023-06-10T01:02:21;99706.81;;;13.09;100.00
36600;BME280;35385;55.668;37.508;2023-06-10T01:03:21;99704.66;;;13.13;100.00
36600;BME280;35385;55.668;37.508;2023-06-10T01:04:21;99705.81;;;13.10;100.00
36600;BME280;35385;55.668;37.508;2023-06-10T01:05:23;99709.75;;;13.06;100.00
36600;BME280;35385;55.668;37.508;2023-06-10T01:06:37;99705.81;;;13.10;100.00
36600;BME280;35385;55.668;37.508;2023-06-10T01:07:46;99711.19;;;13.10;100.00
36600;BME280;35385;55.668;37.508;2023-06-10T01:09:00;99713.72;;;13.12;100.00
36600;BME280;35385;55.668;37.508;2023-06-10T01:10:15;99707.53;;;13.12;100.00
36600;BME280;35385;55.668;37.508;2023-06-10T01:11:24;99708.06;;;13.05;100.00
36600;BME280;35385;55.668;37.508;2023-06-10T01:12:36;99710.19;;;13.02;100.00
36600;BME280;35385;55.668;37.508;2023-06-10T01:13:39;99710.63;;;13.07;100.00
36600;BME280;35385;55.668;37.508;2023-06-10T01:14:41;99712.59;;;13.15;100.00
36600;BME280;35385;55.668;37.508;2023-06-10T01:15:45;99708.50;;;13.10;100.00
36600;BME280;35385;55.668;37.508;2023-06-10T01:16:45;99712.31;;;12.98;100.00
36600;BME280;35385;55.668;37.508;2023-06-10T01:17:55;99715.41;;;13.03;100.00
36600;BME280;35385;55.668;37.508;2023-06-10T01:18:58;99714.84;;;13.09;100.00
36600;BME280;35385;55.668;37.508;2023-06-10T01:19:58;99717.66;;;13.08;100.00
36600;BME280;35385;55.668;37.508;2023-06-10T01:20:59;99716.69;;;13.09;100.00
36600;BME280;35385;55.668;37.508;2023-06-10T01:21:59;99713.72;;;13.12;100.00
36600;BME280;35385;55.668;37.508;2023-06-10T01:23:01;99721.47;;;13.05;100.00
36600;BME280;35385;55.668;37.508;2023-06-10T01:24:03;99721.75;;;13.02;100.00
36600;BME280;35385;55.668;37.508;2023-06-10T01:25:03;99723.44;;;13.03;100.00
36600;BME280;35385;55.668;37.508;2023-06-10T01:26:06;99729.53;;;13.05;100.00
36600;BME280;35385;55.668;37.508;2023-06-10T01:27:12;99731.91;;;12.99;100.00
36600;BME280;35385;55.668;37.508;2023-06-10T01:28:20;99728.69;;;12.95;100.00
36600;BME280;35385;55.668;37.508;2023-06-10T01:29:27;99730.91;;;13.00;100.00
36600;BME280;35385;55.668;37.508;2023-06-10T01:30:32;99733.91;;;13.06;100.00
36600;BME280;35385;55.668;37.508;2023-06-10T01:31:39;99731.75;;;13.00;100.00
36600;BME280;35385;55.668;37.508;2023-06-10T01:32:43;99733.19;;;13.04;100.00
36600;BME280;35385;55.668;37.508;2023-06-10T01:33:52;99734.16;;;13.03;100.00
36600;BME280;35385;55.668;37.508;2023-06-10T01:34:52;99732.75;;;12.99;100.00
36600;BME280;35385;55.668;37.508;2023-06-10T01:35:56;99731.75;;;13.00;100.00
36600;BME280;35385;55.668;37.508;2023-06-10T01:36:57;99731.50;;;13.03;100.00
36600;BME280;35385;55.668;37.508;2023-06-10T01:37:58;99734.88;;;13.05;100.00
36600;BME280;35385;55.668;37.508;2023-06-10T01:39:00;99731.22;;;13.06;100.00
36600;BME280;35385;55.668;37.508;2023-06-10T01:40:02;99734.03;;;13.05;100.00
36600;BME280;35385;55.668;37.508;2023-06-10T01:41:06;99727.69;;;12.96;100.00
36600;BME280;35385;55.668;37.508;2023-06-10T01:42:06;99723.31;;;12.95;100.00
36600;BME280;35385;55.668;37.508;2023-06-10T01:43:08;99734.31;;;12.92;100.00
36600;BME280;35385;55.668;37.508;2023-06-10T01:44:09;99724.72;;;12.90;100.00
36600;BME280;35385;55.668;37.508;2023-06-10T01:45:09;99729.50;;;12.86;100.00
36600;BME280;35385;55.668;37.508;2023-06-10T01:46:10;99732.88;;;12.88;100.00
36600;BME280;35385;55.668;37.508;2023-06-10T01:47:10;99743.06;;;12.94;100.00
36600;BME280;35385;55.668;37.508;2023-06-10T01:48:11;99739.41;;;12.95;100.00
36600;BME280;35385;55.668;37.508;2023-06-10T01:49:11;99735.28;;;12.91;100.00
36600;BME280;35385;55.668;37.508;2023-06-10T01:50:12;99746.16;;;12.90;100.00
36600;BME280;35385;55.668;37.508;2023-06-10T01:51:12;99744.19;;;12.92;100.00
36600;BME280;35385;55.668;37.508;2023-06-10T01:52:12;99747.31;;;12.97;100.00
36600;BME280;35385;55.668;37.508;2023-06-10T01:53:13;99748.84;;;12.99;100.00
36600;BME280;35385;55.668;37.508;2023-06-10T01:54:13;99749.25;;;12.85;100.00
36600;BME280;35385;55.668;37.508;2023-06-10T01:55:14;99750.41;;;12.83;100.00
36600;BME280;35385;55.668;37.508;2023-06-10T01:56:14;99744.84;;;12.65;100.00
36600;BME280;35385;55.668;37.508;2023-06-10T01:57:19;99745.97;;;12.53;100.00
36600;BME280;35385;55.668;37.508;2023-06-10T01:58:20;99747.09;;;12.60;100.00
36600;BME280;35385;55.668;37.508;2023-06-10T01:59:20;99736.81;;;12.65;100.00
36600;BME280;35385;55.668;37.508;2023-06-10T02:00:21;99751.06;;;12.65;100.00
36600;BME280;35385;55.668;37.508;2023-06-10T02:01:21;99750.22;;;12.65;100.00
36600;BME280;35385;55.668;37.508;2023-06-10T02:02:21;99751.97;;;12.45;100.00
36600;BME280;35385;55.668;37.508;2023-06-10T02:03:22;99756.50;;;12.45;100.00
36600;BME280;35385;55.668;37.508;2023-06-10T02:04:22;99752.81;;;12.46;100.00
36600;BME280;35385;55.668;37.508;2023-06-10T02:05:23;99753.41;;;12.39;100.00
36600;BME280;35385;55.668;37.508;2023-06-10T02:06:23;99751.97;;;12.35;100.00
36600;BME280;35385;55.668;37.508;2023-06-10T02:07:24;99759.00;;;12.36;100.00
36600;BME280;35385;55.668;37.508;2023-06-10T02:08:24;99760.28;;;12.42;100.00
36600;BME280;35385;55.668;37.508;2023-06-10T02:09:24;99751.69;;;12.38;100.00
36600;BME280;35385;55.668;37.508;2023-06-10T02:10:25;99754.91;;;12.32;100.00
36600;BME280;35385;55.668;37.508;2023-06-10T02:11:25;99756.47;;;12.35;100.00
36600;BME280;35385;55.668;37.508;2023-06-10T02:12:26;99765.47;;;12.34;100.00
36600;BME280;35385;55.668;37.508;2023-06-10T02:13:27;99762.94;;;12.32;100.00
36600;BME280;35385;55.668;37.508;2023-06-10T02:14:27;99760.44;;;12.41;100.00
36600;BME280;35385;55.668;37.508;2023-06-10T02:15:27;99761.84;;;12.45;100.00
36600;BME280;35385;55.668;37.508;2023-06-10T02:16:28;99760.59;;;12.39;100.00
36600;BME280;35385;55.668;37.508;2023-06-10T02:17:29;99760.44;;;12.41;100.00
36600;BME280;35385;55.668;37.508;2023-06-10T02:18:50;99767.34;;;12.43;100.00
36600;BME280;35385;55.668;37.508;2023-06-10T02:19:50;99769.34;;;12.51;100.00
36600;BME280;35385;55.668;37.508;2023-06-10T02:20:54;99773.16;;;12.58;100.00
36600;BME280;35385;55.668;37.508;2023-06-10T02:21:54;99776.28;;;12.63;100.00
36600;BME280;35385;55.668;37.508;2023-06-10T02:22:55;99767.84;;;12.67;100.00
36600;BME280;35385;55.668;37.508;2023-06-10T02:23:55;99769.78;;;12.56;100.00
36600;BME280;35385;55.668;37.508;2023-06-10T02:24:55;99768.63;;;12.49;100.00
36600;BME280;35385;55.668;37.508;2023-06-10T02:25:56;99774.13;;;12.47;100.00
36600;BME280;35385;55.668;37.508;2023-06-10T02:26:56;99767.06;;;12.36;100.00
36600;BME280;35385;55.668;37.508;2023-06-10T02:27:57;99764.63;;;12.33;100.00
36600;BME280;35385;55.668;37.508;2023-06-10T02:28:57;99767.06;;;12.36;100.00
36600;BME280;35385;55.668;37.508;2023-06-10T02:29:58;99775.22;;;12.35;100.00
36600;BME280;35385;55.668;37.508;2023-06-10T02:30:58;99771.94;;;12.31;100.00
36600;BME280;35385;55.668;37.508;2023-06-10T02:31:59;99768.56;;;12.29;100.00
36600;BME280;35385;55.668;37.508;2023-06-10T02:32:59;99776.34;;;12.32;100.00
36600;BME280;35385;55.668;37.508;2023-06-10T02:34:01;99774.75;;;12.30;100.00
36600;BME280;35385;55.668;37.508;2023-06-10T02:35:03;99763.78;;;12.33;100.00
36600;BME280;35385;55.668;37.508;2023-06-10T02:36:04;99772.94;;;12.30;100.00
36600;BME280;35385;55.668;37.508;2023-06-10T02:37:05;99771.59;;;12.15;100.00
36600;BME280;35385;55.668;37.508;2023-06-10T02:38:05;99779.38;;;12.18;100.00
36600;BME280;35385;55.668;37.508;2023-06-10T02:39:05;99775.19;;;12.25;100.00
36600;BME280;35385;55.668;37.508;2023-06-10T02:40:06;99771.38;;;12.28;100.00
36600;BME280;35385;55.668;37.508;2023-06-10T02:41:07;99775.63;;;12.30;100.00
36600;BME280;35385;55.668;37.508;2023-06-10T02:42:07;99773.25;;;12.37;100.00
36600;BME280;35385;55.668;37.508;2023-06-10T02:43:08;99778.78;;;12.45;100.00
36600;BME280;35385;55.668;37.508;2023-06-10T02:44:09;99774.44;;;12.54;100.00
36600;BME280;35385;55.668;37.508;2023-06-10T02:45:09;99777.41;;;12.51;100.00
36600;BME280;35385;55.668;37.508;2023-06-10T02:46:10;99779.50;;;12.47;100.00
36600;BME280;35385;55.668;37.508;2023-06-10T02:47:10;99778.50;;;12.48;100.00
36600;BME280;35385;55.668;37.508;2023-06-10T02:48:10;99780.91;;;12.51;100.00
36600;BME280;35385;55.668;37.508;2023-06-10T02:49:11;99779.97;;;12.62;100.00
36600;BME280;35385;55.668;37.508;2023-06-10T02:50:11;99785.47;;;12.70;100.00
36600;BME280;35385;55.668;37.508;2023-06-10T02:51:12;99788.16;;;12.70;100.00
36600;BME280;35385;55.668;37.508;2023-06-10T02:52:13;99789.84;;;12.71;100.00
36600;BME280;35385;55.668;37.508;2023-06-10T02:53:13;99784.78;;;12.68;100.00
36600;BME280;35385;55.668;37.508;2023-06-10T02:54:13;99782.19;;;12.57;100.00
36600;BME280;35385;55.668;37.508;2023-06-10T02:55:14;99782.50;;;12.54;100.00
36600;BME280;35385;55.668;37.508;2023-06-10T02:56:16;99783.88;;;12.58;100.00
36600;BME280;35385;55.668;37.508;2023-06-10T02:57:16;99791.13;;;12.67;100.00
36600;BME280;35385;55.668;37.508;2023-06-10T02:58:17;99787.34;;;12.69;100.00
36600;BME280;35385;55.668;37.508;2023-06-10T02:59:17;99787.03;;;12.72;100.00
36600;BME280;35385;55.668;37.508;2023-06-10T03:00:17;99793.25;;;12.73;100.00
36600;BME280;35385;55.668;37.508;2023-06-10T03:01:20;99786.56;;;12.58;100.00
36600;BME280;35385;55.668;37.508;2023-06-10T03:02:20;99787.88;;;12.63;100.00
36600;BME280;35385;55.668;37.508;2023-06-10T03:03:21;99789.84;;;12.71;100.00
36600;BME280;35385;55.668;37.508;2023-06-10T03:04:22;99791.69;;;12.70;100.00
36600;BME280;35385;55.668;37.508;2023-06-10T03:05:23;99782.09;;;12.68;100.00
36600;BME280;35385;55.668;37.508;2023-06-10T03:06:24;99792.38;;;12.72;100.00
36600;BME280;35385;55.668;37.508;2023-06-10T03:07:25;99797.09;;;12.80;100.00
36600;BME280;35385;55.668;37.508;2023-06-10T03:08:26;99793.84;;;12.86;100.00
36600;BME280;35385;55.668;37.508;2023-06-10T03:09:26;99794.13;;;12.83;100.00
36600;BME280;35385;55.668;37.508;2023-06-10T03:10:26;99800.75;;;12.89;100.00
36600;BME280;35385;55.668;37.508;2023-06-10T03:11:27;99794.72;;;12.96;100.00
36600;BME280;35385;55.668;37.508;2023-06-10T03:12:27;99794.81;;;12.85;100.00
36600;BME280;35385;55.668;37.508;2023-06-10T03:13:28;99796.09;;;12.81;100.00
36600;BME280;35385;55.668;37.508;2023-06-10T03:14:28;99801.34;;;12.92;100.00
36600;BME280;35385;55.668;37.508;2023-06-10T03:15:28;99798.34;;;12.76;100.00
36600;BME280;35385;55.668;37.508;2023-06-10T03:16:32;99800.56;;;12.71;100.00
36600;BME280;35385;55.668;37.508;2023-06-10T03:17:33;99797.88;;;12.71;100.00
36600;BME280;35385;55.668;37.508;2023-06-10T03:18:33;99792.38;;;12.72;100.00
36600;BME280;35385;55.668;37.508;2023-06-10T03:19:34;99791.69;;;12.70;100.00
36600;BME280;35385;55.668;37.508;2023-06-10T03:20:34;99799.31;;;12.75;100.00
36600;BME280;35385;55.668;37.508;2023-06-10T03:21:43;99795.38;;;12.79;100.00
36600;BME280;35385;55.668;37.508;2023-06-10T03:22:44;99793.41;;;12.81;100.00
36600;BME280;35385;55.668;37.508;2023-06-10T03:23:44;99792.44;;;12.82;100.00
36600;BME280;35385;55.668;37.508;2023-06-10T03:24:44;99800.56;;;12.71;100.00
36600;BME280;35385;55.668;37.508;2023-06-10T03:25:46;99801.72;;;12.78;100.00
36600;BME280;35385;55.668;37.508;2023-06-10T03:26:46;99798.47;;;12.84;100.00
36600;BME280;35385;55.668;37.508;2023-06-10T03:27:47;99800.00;;;12.67;100.00
36600;BME280;35385;55.668;37.508;2023-06-10T03:28:47;99802.25;;;12.72;100.00
36600;BME280;35385;55.668;37.508;2023-06-10T03:29:48;99792.81;;;12.68;100.00
36600;BME280;35385;55.668;37.508;2023-06-10T03:30:49;99800.56;;;12.71;100.00
36600;BME280;35385;55.668;37.508;2023-06-10T03:31:49;99803.16;;;12.82;100.00
36600;BME280;35385;55.668;37.508;2023-06-10T03:32:50;99798.22;;;12.87;100.00
36600;BME280;35385;55.668;37.508;2023-06-10T03:33:50;99809.78;;;12.88;100.00
36600;BME280;35385;55.668;37.508;2023-06-10T03:34:51;99806.25;;;12.87;100.00
36600;BME280;35385;55.668;37.508;2023-06-10T03:35:51;99809.66;;;12.89;100.00
36600;BME280;35385;55.668;37.508;2023-06-10T03:36:52;99803.03;;;12.84;100.00
36600;BME280;35385;55.668;37.508;2023-06-10T03:37:52;99804.16;;;12.91;100.00
36600;BME280;35385;55.668;37.508;2023-06-10T03:38:52;99810.69;;;12.98;100.00
36600;BME280;35385;55.668;37.508;2023-06-10T03:39:54;99810.69;;;13.07;100.00
36600;BME280;35385;55.668;37.508;2023-06-10T03:40:54;99802.06;;;13.04;100.00
36600;BME280;35385;55.668;37.508;2023-06-10T03:41:55;99812.09;;;13.12;100.00
36600;BME280;35385;55.668;37.508;2023-06-10T03:42:57;99813.00;;;13.22;100.00
36600;BME280;35385;55.668;37.508;2023-06-10T03:43:57;99812.28;;;13.20;100.00
36600;BME280;35385;55.668;37.508;2023-06-10T03:44:57;99812.84;;;13.23;100.00
36600;BME280;35385;55.668;37.508;2023-06-10T03:45:58;99815.41;;;13.25;100.00
36600;BME280;35385;55.668;37.508;2023-06-10T03:46:58;99813.69;;;13.24;100.00
36600;BME280;35385;55.668;37.508;2023-06-10T03:48:00;99817.78;;;13.28;100.00
36600;BME280;35385;55.668;37.508;2023-06-10T03:49:01;99813.84;;;13.22;100.00
36600;BME280;35385;55.668;37.508;2023-06-10T03:50:02;99813.13;;;13.30;100.00
36600;BME280;35385;55.668;37.508;2023-06-10T03:51:03;99812.72;;;13.25;100.00
36600;BME280;35385;55.668;37.508;2023-06-10T03:52:04;99815.09;;;13.18;100.00
36600;BME280;35385;55.668;37.508;2023-06-10T03:53:04;99810.75;;;13.36;100.00
36600;BME280;35385;55.668;37.508;2023-06-10T03:54:04;99816.69;;;13.40;100.00
36600;BME280;35385;55.668;37.508;2023-06-10T03:55:05;99811.00;;;13.43;100.00
36600;BME280;35385;55.668;37.508;2023-06-10T03:56:06;99819.63;;;13.37;100.00
36600;BME280;35385;55.668;37.508;2023-06-10T03:57:06;99812.56;;;13.36;100.00
36600;BME280;35385;55.668;37.508;2023-06-10T03:58:06;99817.34;;;13.42;100.00
36600;BME280;35385;55.668;37.508;2023-06-10T03:59:07;99816.78;;;13.58;100.00
36600;BME280;35385;55.668;37.508;2023-06-10T04:00:07;99820.19;;;13.69;100.00
36600;BME280;35385;55.668;37.508;2023-06-10T04:01:12;99810.56;;;13.76;100.00
36600;BME280;35385;55.668;37.508;2023-06-10T04:02:13;99815.50;;;13.71;100.00
36600;BME280;35385;55.668;37.508;2023-06-10T04:03:13;99820.59;;;13.74;100.00
36600;BME280;35385;55.668;37.508;2023-06-10T04:04:14;99821.59;;;13.83;100.00
36600;BME280;35385;55.668;37.508;2023-06-10T04:05:17;99823.13;;;13.86;100.00
36600;BME280;35385;55.668;37.508;2023-06-10T04:06:17;99824.81;;;13.87;100.00
36600;BME280;35385;55.668;37.508;2023-06-10T04:07:18;99823.84;;;13.88;100.00
36600;BME280;35385;55.668;37.508;2023-06-10T04:08:20;99827.09;;;13.91;100.00
36600;BME280;35385;55.668;37.508;2023-06-10T04:09:22;99829.50;;;13.94;100.00
36600;BME280;35385;55.668;37.508;2023-06-10T04:10:22;99829.34;;;13.96;100.00
36600;BME280;35385;55.668;37.508;2023-06-10T04:11:23;99828.91;;;13.91;100.00
36600;BME280;35385;55.668;37.508;2023-06-10T04:12:24;99828.50;;;13.86;100.00
36600;BME280;35385;55.668;37.508;2023-06-10T04:13:24;99832.63;;;13.80;100.00
36600;BME280;35385;55.668;37.508;2023-06-10T04:14:25;99831.34;;;13.74;100.00
36600;BME280;35385;55.668;37.508;2023-06-10T04:15:25;99831.75;;;13.89;100.00
36600;BME280;35385;55.668;37.508;2023-06-10T04:16:25;99826.25;;;13.91;100.00
36600;BME280;35385;55.668;37.508;2023-06-10T04:17:26;99830.31;;;13.85;100.00
36600;BME280;35385;55.668;37.508;2023-06-10T04:18:26;99828.09;;;13.80;100.00
36600;BME280;35385;55.668;37.508;2023-06-10T04:19:27;99829.50;;;13.75;100.00
36600;BME280;35385;55.668;37.508;2023-06-10T04:20:28;99828.41;;;13.68;100.00
36600;BME280;35385;55.668;37.508;2023-06-10T04:21:29;99828.78;;;13.73;100.00
36600;BME280;35385;55.668;37.508;2023-06-10T04:22:29;99829.91;;;13.90;100.00
36600;BME280;35385;55.668;37.508;2023-06-10T04:23:29;99825.53;;;13.98;100.00
36600;BME280;35385;55.668;37.508;2023-06-10T04:24:30;99834.00;;;14.13;100.00
36600;BME280;35385;55.668;37.508;2023-06-10T04:25:31;99832.81;;;14.25;100.00
36600;BME280;35385;55.668;37.508;2023-06-10T04:26:31;99834.06;;;14.40;100.00
36600;BME280;35385;55.668;37.508;2023-06-10T04:27:32;99841.81;;;14.53;100.00
36600;BME280;35385;55.668;37.508;2023-06-10T04:28:32;99832.59;;;14.56;100.00
36600;BME280;35385;55.668;37.508;2023-06-10T04:29:32;99837.28;;;14.54;100.00
36600;BME280;35385;55.668;37.508;2023-06-10T04:30:33;99835.53;;;14.62;100.00
36600;BME280;35385;55.668;37.508;2023-06-10T04:31:33;99843.16;;;14.67;100.00
36600;BME280;35385;55.668;37.508;2023-06-10T04:32:34;99839.56;;;14.76;100.00
36600;BME280;35385;55.668;37.508;2023-06-10T04:33:34;99831.91;;;14.81;100.00
36600;BME280;35385;55.668;37.508;2023-06-10T04:34:35;99833.41;;;14.66;100.00
36600;BME280;35385;55.668;37.508;2023-06-10T04:35:35;99835.28;;;14.56;100.00
36600;BME280;35385;55.668;37.508;2023-06-10T04:36:35;99834.09;;;14.68;100.00
36600;BME280;35385;55.668;37.508;2023-06-10T04:37:36;99831.47;;;14.85;100.00
36600;BME280;35385;55.668;37.508;2023-06-10T04:38:36;99837.09;;;14.92;100.00
36600;BME280;35385;55.668;37.508;2023-06-10T04:39:37;99833.69;;;14.90;100.00
36600;BME280;35385;55.668;37.508;2023-06-10T04:40:37;99839.19;;;14.71;100.00
36600;BME280;35385;55.668;37.508;2023-06-10T04:41:37;99840.56;;;14.75;100.00
36600;BME280;35385;55.668;37.508;2023-06-10T04:42:38;99840.72;;;14.73;100.00
36600;BME280;35385;55.668;37.508;2023-06-10T04:43:38;99844.94;;;14.76;100.00
36600;BME280;35385;55.668;37.508;2023-06-10T04:44:38;99844.16;;;14.66;100.00
36600;BME280;35385;55.668;37.508;2023-06-10T04:45:39;99842.47;;;14.65;100.00
36600;BME280;35385;55.668;37.508;2023-06-10T04:46:39;99852.78;;;14.69;100.00
36600;BME280;35385;55.668;37.508;2023-06-10T04:47:40;99843.53;;;14.72;100.00
36600;BME280;35385;55.668;37.508;2023-06-10T04:48:40;99847.06;;;14.82;100.00
36600;BME280;35385;55.668;37.508;2023-06-10T04:49:42;99845.84;;;14.94;100.00
36600;BME280;35385;55.668;37.508;2023-06-10T04:50:42;99843.38;;;15.01;100.00
36600;BME280;35385;55.668;37.508;2023-06-10T04:51:43;99845.75;;;15.13;100.00
36600;BME280;35385;55.668;37.508;2023-06-10T04:52:43;99852.66;;;15.16;100.00
36600;BME280;35385;55.668;37.508;2023-06-10T04:53:44;99848.13;;;15.34;100.00
36600;BME280;35385;55.668;37.508;2023-06-10T04:54:45;99849.78;;;15.63;100.00
36600;BME280;35385;55.668;37.508;2023-06-10T04:55:45;99843.78;;;15.86;100.00
36600;BME280;35385;55.668;37.508;2023-06-10T04:56:46;99849.22;;;16.12;100.00
36600;BME280;35385;55.668;37.508;2023-06-10T04:57:46;99846.13;;;16.07;100.00
36600;BME280;35385;55.668;37.508;2023-06-10T04:58:47;99855.00;;;16.00;100.00
36600;BME280;35385;55.668;37.508;2023-06-10T04:59:47;99852.34;;;15.82;100.00
36600;BME280;35385;55.668;37.508;2023-06-10T05:00:48;99853.22;;;15.90;100.00
36600;BME280;35385;55.668;37.508;2023-06-10T05:01:48;99850.00;;;15.87;100.00
36600;BME280;35385;55.668;37.508;2023-06-10T05:02:48;99851.69;;;15.88;100.00
36600;BME280;35385;55.668;37.508;2023-06-10T05:03:49;99860.41;;;16.00;100.00
36600;BME280;35385;55.668;37.508;2023-06-10T05:04:50;99854.19;;;16.25;100.00
36600;BME280;35385;55.668;37.508;2023-06-10T05:05:50;99845.53;;;16.47;100.00
36600;BME280;35385;55.668;37.508;2023-06-10T05:06:51;99857.06;;;16.57;100.00
36600;BME280;35385;55.668;37.508;2023-06-10T05:07:51;99857.13;;;16.40;100.00
36600;BME280;35385;55.668;37.508;2023-06-10T05:08:52;99861.38;;;16.42;100.00
36600;BME280;35385;55.668;37.508;2023-06-10T05:09:52;99857.00;;;16.75;100.00
36600;BME280;35385;55.668;37.508;2023-06-10T05:10:52;99855.41;;;16.90;100.00
36600;BME280;35385;55.668;37.508;2023-06-10T05:11:54;99854.91;;;16.35;100.00
36600;BME280;35385;55.668;37.508;2023-06-10T05:12:54;99864.66;;;16.28;100.00
36600;BME280;35385;55.668;37.508;2023-06-10T05:13:54;99863.84;;;16.36;100.00
36600;BME280;35385;55.668;37.508;2023-06-10T05:14:55;99854.16;;;16.51;100.00
36600;BME280;35385;55.668;37.508;2023-06-10T05:15:56;99861.03;;;16.45;100.00